createdAt,value
2022-11-30T00:01:13.850Z,32.38
2022-11-30T00:03:41.366Z,29.25
2022-11-30T00:06:10.625Z,32.47
2022-11-30T00:08:37.805Z,32.03
2022-11-30T00:11:19.042Z,29.33
2022-11-30T00:13:46.109Z,32.05
2022-11-30T00:16:13.317Z,32.42
2022-11-30T00:18:40.350Z,32.80
2022-11-30T00:21:09.321Z,32.45
2022-11-30T00:23:41.078Z,31.63
2022-11-30T00:26:10.309Z,33.33
2022-11-30T00:28:38.238Z,34.05
2022-11-30T00:31:08.532Z,31.23
2022-11-30T00:33:37.041Z,35.63
2022-11-30T00:36:09.700Z,31.92
2022-11-30T00:38:36.657Z,31.25
2022-11-30T00:41:03.922Z,32.72
2022-11-30T00:43:31.291Z,35.60
2022-11-30T00:45:58.611Z,33.72
2022-11-30T00:48:26.101Z,35.85
2022-11-30T00:50:53.474Z,35.53
2022-11-30T00:53:20.971Z,35.58
2022-11-30T00:55:48.459Z,31.90
2022-11-30T00:58:15.677Z,33.30
2022-11-30T01:00:42.665Z,37.33
2022-11-30T01:03:09.894Z,36.78
2022-11-30T01:05:36.941Z,36.30
2022-11-30T01:08:05.755Z,37.80
2022-11-30T01:10:34.351Z,36.67
2022-11-30T01:13:01.906Z,38.28
2022-11-30T01:15:29.543Z,38.92
2022-11-30T01:17:56.816Z,33.72
2022-11-30T01:20:23.724Z,37.38
2022-11-30T01:22:50.680Z,32.70
2022-11-30T01:25:17.799Z,33.22
2022-11-30T01:27:44.749Z,37.13
2022-11-30T01:30:14.584Z,33.08
2022-11-30T01:32:41.534Z,34.53
2022-11-30T01:35:09.371Z,36.25
2022-11-30T01:37:36.561Z,37.20
2022-11-30T01:40:04.192Z,33.92
2022-11-30T01:42:33.270Z,34.83
2022-11-30T01:45:01.981Z,33.47
2022-11-30T01:47:30.157Z,34.75
2022-11-30T01:50:09.996Z,30.58
2022-11-30T01:52:40.125Z,30.17
2022-11-30T01:55:15.706Z,29.00
2022-11-30T01:57:47.076Z,30.48
2022-11-30T02:00:15.293Z,32.80
2022-11-30T02:02:57.585Z,28.02
2022-11-30T02:05:25.566Z,28.33
2022-11-30T02:07:53.158Z,31.02
2022-11-30T02:10:26.017Z,28.67
2022-11-30T02:13:14.319Z,32.28
2022-11-30T02:15:52.717Z,30.80
2022-11-30T02:18:36.313Z,29.75
2022-11-30T02:21:14.722Z,31.60
2022-11-30T02:24:00.580Z,30.02
2022-11-30T02:26:43.693Z,30.65
2022-11-30T02:29:13.657Z,33.05
2022-11-30T02:31:56.110Z,30.27
2022-11-30T02:34:25.814Z,29.45
2022-11-30T02:36:53.421Z,31.33
2022-11-30T02:39:22.327Z,30.95
2022-11-30T02:41:49.330Z,31.20
2022-11-30T02:44:16.813Z,30.58
2022-11-30T02:47:11.196Z,36.90
2022-11-30T02:49:52.596Z,31.38
2022-11-30T02:52:20.375Z,30.30
2022-11-30T02:54:47.670Z,30.15
2022-11-30T02:57:14.904Z,27.90
2022-11-30T02:59:42.066Z,33.10
2022-11-30T03:02:08.972Z,28.58
2022-11-30T03:04:35.949Z,31.92
2022-11-30T03:07:02.918Z,31.15
2022-11-30T03:09:30.288Z,27.60
2022-11-30T03:11:57.382Z,30.98
2022-11-30T03:14:24.728Z,33.22
2022-11-30T03:16:51.655Z,29.00
2022-11-30T03:19:18.737Z,26.80
2022-11-30T03:21:45.655Z,30.52
2022-11-30T03:24:12.662Z,30.02
2022-11-30T03:26:39.594Z,30.85
2022-11-30T03:29:06.496Z,28.13
2022-11-30T03:31:33.489Z,31.25
2022-11-30T03:34:00.447Z,31.92
2022-11-30T03:36:27.435Z,28.40
2022-11-30T03:38:54.787Z,31.08
2022-11-30T03:41:21.843Z,28.55
2022-11-30T03:43:48.783Z,28.58
2022-11-30T03:46:15.801Z,25.58
2022-11-30T03:48:42.881Z,26.52
2022-11-30T03:51:11.576Z,30.48
2022-11-30T03:53:38.850Z,33.75
2022-11-30T03:56:08.439Z,32.15
2022-11-30T03:58:36.106Z,30.05
2022-11-30T04:01:15.388Z,29.65
2022-11-30T04:03:42.909Z,30.92
2022-11-30T04:06:11.897Z,32.10
2022-11-30T04:08:39.884Z,35.05
2022-11-30T04:11:07.694Z,35.72
2022-11-30T04:13:36.372Z,33.35
2022-11-30T04:16:04.175Z,33.47
2022-11-30T04:18:33.137Z,37.38
2022-11-30T04:21:01.201Z,36.80
2022-11-30T04:23:33.437Z,33.80
2022-11-30T04:26:00.858Z,35.85
2022-11-30T04:28:27.797Z,37.53
2022-11-30T04:30:55.403Z,36.22
2022-11-30T04:33:22.654Z,38.10
2022-11-30T04:35:52.383Z,38.78
2022-11-30T04:38:19.359Z,41.63
2022-11-30T04:40:46.349Z,43.50
2022-11-30T04:43:13.571Z,57.80
2022-11-30T04:45:40.804Z,46.00
2022-11-30T04:48:08.394Z,40.50
2022-11-30T04:50:35.764Z,39.40
2022-11-30T04:53:02.847Z,38.08
2022-11-30T04:55:29.808Z,38.80
2022-11-30T04:57:56.883Z,38.92
2022-11-30T05:00:24.070Z,35.80
2022-11-30T05:02:53.190Z,36.63
2022-11-30T05:05:23.619Z,36.63
2022-11-30T05:08:00.401Z,37.47
2022-11-30T05:10:28.705Z,39.08
2022-11-30T05:12:56.434Z,37.13
2022-11-30T05:15:23.459Z,39.42
2022-11-30T05:17:50.430Z,35.05
2022-11-30T05:20:17.514Z,34.53
2022-11-30T05:22:44.460Z,34.35
2022-11-30T05:25:11.505Z,38.22
2022-11-30T05:27:38.490Z,34.17
2022-11-30T05:30:06.515Z,35.05
2022-11-30T05:32:33.443Z,36.20
2022-11-30T05:35:00.660Z,32.95
2022-11-30T05:37:27.758Z,33.30
2022-11-30T05:39:54.809Z,31.25
2022-11-30T05:42:22.020Z,36.05
2022-11-30T05:44:49.264Z,35.08
2022-11-30T05:47:17.073Z,36.30
2022-11-30T05:49:44.083Z,33.65
2022-11-30T05:52:11.147Z,36.35
2022-11-30T05:54:38.311Z,41.03
2022-11-30T05:57:05.793Z,31.45
2022-11-30T05:59:32.963Z,38.10
2022-11-30T06:02:00.074Z,36.95
2022-11-30T06:04:27.217Z,34.33
2022-11-30T06:06:56.015Z,32.83
2022-11-30T06:09:23.595Z,35.75
2022-11-30T06:11:50.866Z,36.63
2022-11-30T06:14:18.566Z,32.38
2022-11-30T06:16:46.560Z,36.35
2022-11-30T06:19:13.694Z,34.17
2022-11-30T06:21:40.623Z,35.20
2022-11-30T06:24:07.845Z,32.75
2022-11-30T06:26:35.826Z,35.50
2022-11-30T06:29:03.577Z,40.97
2022-11-30T06:31:31.730Z,34.92
2022-11-30T06:33:59.326Z,40.42
2022-11-30T06:36:30.037Z,38.33
2022-11-30T06:39:01.253Z,40.38
2022-11-30T06:41:28.266Z,39.40
2022-11-30T06:43:55.255Z,50.03
2022-11-30T06:46:22.533Z,47.63
2022-11-30T06:48:51.169Z,39.53
2022-11-30T06:51:18.737Z,40.47
2022-11-30T06:53:46.366Z,41.13
2022-11-30T06:56:13.326Z,39.50
2022-11-30T06:58:40.884Z,38.83
2022-11-30T07:01:09.652Z,38.03
2022-11-30T07:03:37.339Z,41.42
2022-11-30T07:06:09.605Z,34.92
2022-11-30T07:08:37.312Z,36.92
2022-11-30T07:11:04.521Z,36.13
2022-11-30T07:13:31.804Z,34.58
2022-11-30T07:15:58.767Z,33.58
2022-11-30T07:18:31.521Z,33.67
2022-11-30T07:21:00.455Z,34.88
2022-11-30T07:23:50.792Z,31.10
2022-11-30T07:26:22.483Z,32.65
2022-11-30T07:28:55.108Z,28.30
2022-11-30T07:31:28.472Z,27.92
2022-11-30T07:33:56.349Z,28.35
2022-11-30T07:36:25.774Z,31.55
2022-11-30T07:38:52.992Z,31.95
2022-11-30T07:41:19.946Z,30.83
2022-11-30T07:43:46.864Z,33.45
2022-11-30T07:46:15.885Z,29.50
2022-11-30T07:48:43.646Z,32.67
2022-11-30T07:51:19.980Z,33.20
2022-11-30T07:53:47.060Z,27.85
2022-11-30T07:56:16.366Z,29.40
2022-11-30T07:58:43.854Z,32.50
2022-11-30T08:01:14.375Z,35.72
2022-11-30T08:03:41.919Z,30.70
2022-11-30T08:06:11.885Z,31.33
2022-11-30T08:08:42.438Z,31.13
2022-11-30T08:11:12.111Z,31.88
2022-11-30T08:13:39.604Z,31.38
2022-11-30T08:16:11.833Z,31.67
2022-11-30T08:18:39.767Z,33.67
2022-11-30T08:21:07.972Z,35.45
2022-11-30T08:23:47.245Z,38.00
2022-11-30T08:26:17.090Z,42.13
2022-11-30T08:28:45.505Z,29.38
2022-11-30T08:31:21.624Z,31.25
2022-11-30T08:33:49.476Z,46.45
2022-11-30T08:36:20.226Z,41.13
2022-11-30T08:41:17.172Z,33.75
2022-11-30T08:43:44.173Z,28.20
2022-11-30T08:46:49.281Z,30.33
2022-11-30T08:54:36.417Z,30.95
2022-11-30T08:57:03.342Z,33.42
2022-11-30T08:59:32.394Z,36.22
2022-11-30T09:01:59.356Z,36.17
2022-11-30T09:04:26.329Z,32.13
2022-11-30T09:06:53.309Z,34.15
2022-11-30T09:09:20.468Z,34.15
2022-11-30T09:11:47.416Z,39.42
2022-11-30T09:14:14.388Z,35.10
2022-11-30T09:16:41.321Z,34.65
2022-11-30T09:19:08.388Z,33.00
2022-11-30T09:21:35.344Z,34.38
2022-11-30T09:24:02.313Z,35.78
2022-11-30T09:26:29.341Z,35.15
2022-11-30T09:28:56.322Z,35.55
2022-11-30T09:31:25.163Z,39.42
2022-11-30T09:33:52.917Z,36.92
2022-11-30T09:36:21.955Z,38.30
2022-11-30T09:38:49.227Z,41.20
2022-11-30T09:41:37.412Z,36.80
2022-11-30T09:44:32.541Z,32.25
2022-11-30T09:47:09.041Z,30.73
2022-11-30T09:49:39.644Z,34.28
2022-11-30T09:52:12.029Z,34.15
2022-11-30T09:54:44.277Z,31.95
2022-11-30T09:57:32.149Z,33.35
2022-11-30T10:00:07.170Z,29.98
2022-11-30T10:02:41.468Z,30.30
2022-11-30T10:05:27.731Z,30.30
2022-11-30T10:08:25.990Z,29.83
2022-11-30T10:10:56.506Z,27.15
2022-11-30T10:13:48.415Z,26.25
2022-11-30T10:16:45.780Z,26.25
2022-11-30T10:19:24.814Z,27.13
2022-11-30T10:22:07.341Z,34.47
2022-11-30T10:25:12.024Z,27.88
2022-11-30T10:27:53.646Z,29.65
2022-11-30T10:30:26.149Z,26.90
2022-11-30T10:32:56.238Z,29.95
2022-11-30T10:35:37.683Z,33.60
2022-11-30T10:38:26.449Z,33.13
2022-11-30T10:40:58.272Z,31.33
2022-11-30T10:43:33.453Z,33.75
2022-11-30T10:46:00.666Z,30.92
2022-11-30T10:48:35.206Z,30.58
2022-11-30T10:51:03.452Z,34.85
2022-11-30T10:53:32.371Z,33.63
2022-11-30T10:56:05.005Z,32.10
2022-11-30T10:58:55.158Z,31.90
2022-11-30T11:01:33.462Z,34.65
2022-11-30T11:04:25.583Z,36.05
2022-11-30T11:06:56.926Z,40.35
2022-11-30T11:09:36.090Z,39.67
2022-11-30T11:12:13.530Z,35.88
2022-11-30T11:14:40.471Z,47.42
2022-11-30T11:17:23.202Z,37.13
2022-11-30T11:19:51.204Z,31.50
2022-11-30T11:22:26.271Z,35.35
2022-11-30T11:25:23.717Z,36.92
2022-11-30T11:27:56.411Z,29.08
2022-11-30T11:30:26.420Z,28.45
2022-11-30T11:33:12.231Z,32.63
2022-11-30T11:35:47.103Z,36.55
2022-11-30T11:38:27.448Z,42.40
2022-11-30T11:41:16.171Z,32.15
2022-11-30T11:44:10.623Z,29.13
2022-11-30T11:46:55.844Z,27.73
2022-11-30T11:49:43.016Z,30.63
2022-11-30T11:52:13.308Z,29.60
2022-11-30T11:55:19.356Z,32.55
2022-11-30T11:57:53.992Z,43.30
2022-11-30T12:00:23.749Z,45.35
2022-11-30T12:03:28.942Z,41.88
2022-11-30T12:06:05.109Z,84.53
2022-11-30T12:08:34.954Z,45.72
2022-11-30T12:11:27.609Z,35.50
2022-11-30T12:13:54.445Z,35.65
2022-11-30T12:16:38.181Z,27.75
2022-11-30T12:19:25.336Z,38.58
2022-11-30T12:22:04.315Z,38.78
2022-11-30T12:24:40.556Z,45.17
2022-11-30T12:27:14.036Z,39.13
2022-11-30T12:29:55.992Z,284.58
2022-11-30T12:32:35.123Z,134.15
2022-11-30T12:35:10.978Z,116.93
2022-11-30T12:37:56.849Z,43.25
2022-11-30T12:40:34.129Z,43.22
2022-11-30T12:43:16.662Z,34.97
2022-11-30T12:45:48.121Z,37.25
2022-11-30T12:48:54.345Z,35.17
2022-11-30T12:51:29.833Z,40.13
2022-11-30T12:54:00.201Z,35.42
2022-11-30T12:56:35.895Z,38.75
2022-11-30T12:59:31.524Z,40.83
2022-11-30T13:02:17.354Z,42.42
2022-11-30T13:05:05.259Z,41.03
2022-11-30T13:07:40.288Z,26.98
2022-11-30T13:10:18.785Z,33.25
2022-11-30T13:12:48.680Z,45.40
2022-11-30T13:15:24.456Z,33.87
2022-11-30T13:17:52.461Z,33.80
2022-11-30T13:20:46.851Z,42.45
2022-11-30T13:23:42.852Z,33.40
2022-11-30T13:26:18.934Z,35.50
2022-11-30T13:28:50.663Z,47.65
2022-11-30T13:31:25.612Z,40.47
2022-11-30T13:33:55.669Z,44.80
2022-11-30T13:36:43.884Z,53.37
2022-11-30T13:39:27.408Z,35.17
2022-11-30T13:42:06.353Z,37.25
2022-11-30T13:44:39.454Z,26.08
2022-11-30T13:47:28.641Z,38.40
2022-11-30T13:49:59.093Z,28.02
2022-11-30T13:53:03.224Z,32.38
2022-11-30T13:55:36.264Z,45.05
2022-11-30T13:58:07.625Z,39.53
2022-11-30T14:00:34.649Z,39.78
2022-11-30T14:03:24.678Z,37.58
2022-11-30T14:05:56.224Z,58.90
2022-11-30T14:08:23.225Z,50.17
2022-11-30T14:10:54.985Z,54.97
2022-11-30T14:13:23.154Z,53.65
2022-11-30T14:16:00.962Z,45.35
2022-11-30T14:18:43.339Z,38.10
2022-11-30T14:21:33.488Z,38.47
2022-11-30T14:24:19.947Z,43.08
2022-11-30T14:26:48.920Z,51.65
2022-11-30T14:29:22.409Z,61.90
2022-11-30T14:31:59.183Z,60.63
2022-11-30T14:34:32.632Z,57.28
2022-11-30T14:37:29.475Z,63.92
2022-11-30T14:39:57.114Z,77.80
2022-11-30T14:42:29.013Z,119.97
2022-11-30T14:44:56.956Z,85.55
2022-11-30T14:47:31.451Z,346.10
2022-11-30T14:50:02.282Z,112.88
2022-11-30T14:52:51.257Z,70.70
2022-11-30T14:55:39.197Z,61.65
2022-11-30T14:58:23.668Z,57.85
2022-11-30T15:00:51.383Z,41.55
2022-11-30T15:03:26.483Z,48.85
2022-11-30T15:05:56.160Z,52.00
2022-11-30T15:08:24.107Z,45.28
2022-11-30T15:10:51.253Z,42.97
2022-11-30T15:13:19.623Z,55.20
2022-11-30T15:15:56.447Z,48.15
2022-11-30T15:18:25.366Z,46.83
2022-11-30T15:21:00.269Z,35.08
2022-11-30T15:23:27.692Z,38.55
2022-11-30T15:26:05.672Z,37.50
2022-11-30T15:28:34.849Z,34.63
2022-11-30T15:31:05.775Z,33.58
2022-11-30T15:33:43.424Z,29.92
2022-11-30T15:36:31.961Z,31.58
2022-11-30T15:38:57.753Z,33.00
2022-11-30T15:41:25.629Z,50.50
2022-11-30T15:43:54.989Z,46.90
2022-11-30T15:46:32.272Z,48.17
2022-11-30T15:49:32.154Z,52.63
2022-11-30T15:52:00.989Z,82.85
2022-11-30T15:54:49.768Z,62.20
2022-11-30T15:57:17.569Z,52.85
2022-11-30T15:59:44.726Z,45.15
2022-11-30T16:02:32.292Z,50.15
2022-11-30T16:05:14.529Z,30.70
2022-11-30T16:07:55.921Z,30.73
2022-11-30T16:10:37.256Z,39.45
2022-11-30T16:13:04.774Z,40.72
2022-11-30T16:15:35.781Z,35.80
2022-11-30T16:18:08.872Z,61.00
2022-11-30T16:20:35.947Z,93.35
2022-11-30T16:23:06.003Z,85.07
2022-11-30T16:25:33.042Z,67.68
2022-11-30T16:28:00.008Z,75.95
2022-11-30T16:30:26.994Z,85.47
2022-11-30T16:32:54.010Z,93.43
2022-11-30T16:35:24.191Z,376.35
2022-11-30T16:37:51.817Z,317.50
2022-11-30T16:40:19.777Z,116.25
2022-11-30T16:42:49.612Z,155.05
2022-11-30T16:45:22.260Z,182.63
2022-11-30T16:47:50.148Z,78.32
2022-11-30T16:50:17.580Z,57.67
2022-11-30T16:52:45.237Z,49.60
2022-11-30T16:55:16.170Z,58.60
2022-11-30T16:57:43.586Z,58.00
2022-11-30T17:00:13.038Z,85.75
2022-11-30T17:02:46.502Z,46.45
2022-11-30T17:05:14.839Z,83.90
2022-11-30T17:07:42.255Z,136.55
2022-11-30T17:10:09.740Z,148.32
2022-11-30T17:12:36.755Z,98.75
2022-11-30T17:15:04.691Z,71.95
2022-11-30T17:17:32.353Z,39.60
2022-11-30T17:19:59.200Z,35.60
2022-11-30T17:22:26.170Z,65.80
2022-11-30T17:24:53.117Z,122.55
2022-11-30T17:27:20.032Z,45.08
2022-11-30T17:29:46.990Z,61.67
2022-11-30T17:32:13.902Z,115.78
2022-11-30T17:34:40.828Z,61.38
2022-11-30T17:37:07.886Z,116.40
2022-11-30T17:39:36.455Z,99.40
2022-11-30T17:42:03.438Z,57.35
2022-11-30T17:44:30.297Z,46.85
2022-11-30T17:46:57.875Z,101.47
2022-11-30T17:49:24.817Z,53.13
2022-11-30T17:51:52.170Z,72.65
2022-11-30T17:54:19.118Z,54.63
2022-11-30T17:56:46.513Z,48.97
2022-11-30T17:59:13.711Z,49.33
2022-11-30T18:01:40.927Z,115.30
2022-11-30T18:04:09.138Z,82.18
2022-11-30T18:06:36.550Z,63.15
2022-11-30T18:09:03.586Z,59.92
2022-11-30T18:11:30.631Z,86.40
2022-11-30T18:14:00.701Z,62.47
2022-11-30T18:16:29.760Z,64.72
2022-11-30T18:18:58.982Z,44.47
2022-11-30T18:21:29.617Z,46.83
2022-11-30T18:23:58.049Z,61.03
2022-11-30T18:26:26.433Z,73.65
2022-11-30T18:28:54.788Z,53.97
2022-11-30T18:31:22.246Z,71.00
2022-11-30T18:33:49.420Z,47.33
2022-11-30T18:36:16.604Z,43.40
2022-11-30T18:38:44.319Z,35.67
2022-11-30T18:41:11.329Z,32.20
2022-11-30T18:43:38.894Z,32.92
2022-11-30T18:46:08.664Z,38.97
2022-11-30T18:48:36.506Z,47.10
2022-11-30T18:51:15.042Z,69.60
2022-11-30T18:53:42.354Z,84.28
2022-11-30T18:56:10.378Z,66.30
2022-11-30T18:58:37.349Z,89.35
2022-11-30T19:01:13.603Z,66.05
2022-11-30T19:03:40.964Z,46.85
2022-11-30T19:06:09.310Z,42.88
2022-11-30T19:08:37.319Z,41.63
2022-11-30T19:11:10.616Z,37.25
2022-11-30T19:13:38.059Z,36.58
2022-11-30T19:16:11.809Z,36.55
2022-11-30T19:18:39.648Z,52.97
2022-11-30T19:21:11.747Z,60.20
2022-11-30T19:23:40.220Z,49.13
2022-11-30T19:26:08.697Z,46.22
2022-11-30T19:28:36.833Z,45.60
2022-11-30T19:31:08.947Z,40.78
2022-11-30T19:33:38.111Z,46.90
2022-11-30T19:36:07.863Z,50.70
2022-11-30T19:38:35.651Z,49.60
2022-11-30T19:41:07.570Z,51.70
2022-11-30T19:43:35.277Z,53.75
2022-11-30T19:46:13.112Z,52.88
2022-11-30T19:48:41.410Z,50.30
2022-11-30T19:51:16.435Z,44.50
2022-11-30T19:53:45.563Z,42.83
2022-11-30T19:56:15.365Z,47.28
2022-11-30T19:58:44.472Z,80.90
2022-11-30T20:01:16.238Z,75.55
2022-11-30T20:03:45.233Z,120.47
2022-11-30T20:06:12.925Z,83.10
2022-11-30T20:08:40.460Z,113.07
2022-11-30T20:11:09.116Z,103.50
2022-11-30T20:13:36.239Z,103.78
2022-11-30T20:16:08.514Z,94.93
2022-11-30T20:18:35.736Z,106.55
2022-11-30T20:21:20.641Z,69.93
2022-11-30T20:23:48.326Z,98.47
2022-11-30T20:26:20.674Z,112.40
2022-11-30T20:28:50.079Z,90.72
2022-11-30T20:31:19.487Z,63.60
2022-11-30T20:33:46.993Z,44.15
2022-11-30T20:36:15.911Z,59.20
2022-11-30T20:38:43.348Z,49.10
2022-11-30T20:41:12.363Z,40.90
2022-11-30T20:43:39.554Z,45.92
2022-11-30T20:46:17.723Z,35.28
2022-11-30T20:48:45.201Z,41.28
2022-11-30T20:51:30.121Z,54.03
2022-11-30T20:54:00.667Z,37.80
2022-11-30T20:56:27.724Z,30.05
2022-11-30T20:58:54.701Z,25.23
2022-11-30T21:01:23.066Z,26.77
2022-11-30T21:03:50.352Z,35.30
2022-11-30T21:06:17.525Z,46.00
2022-11-30T21:08:44.745Z,30.92
2022-11-30T21:11:14.225Z,26.88
2022-11-30T21:13:43.164Z,26.30
2022-11-30T21:16:11.955Z,25.33
2022-11-30T21:18:40.515Z,25.05
2022-11-30T21:21:10.732Z,24.40
2022-11-30T21:23:37.693Z,31.55
2022-11-30T21:26:06.093Z,46.65
2022-11-30T21:28:37.806Z,39.88
2022-11-30T21:31:06.082Z,43.25
2022-11-30T21:33:33.283Z,49.97
2022-11-30T21:36:00.215Z,52.72
2022-11-30T21:38:27.232Z,42.22
2022-11-30T21:40:59.338Z,67.18
2022-11-30T21:43:27.759Z,68.68
2022-11-30T21:46:01.407Z,64.78
2022-11-30T21:48:29.880Z,63.53
2022-11-30T21:51:00.874Z,64.55
2022-11-30T21:53:28.702Z,57.90
2022-11-30T21:55:56.086Z,40.65
2022-11-30T21:58:23.729Z,28.95
2022-11-30T22:01:01.909Z,29.40
2022-11-30T22:03:29.222Z,30.73
2022-11-30T22:06:01.095Z,33.08
2022-11-30T22:08:29.069Z,29.27
2022-11-30T22:10:59.495Z,26.05
2022-11-30T22:13:26.422Z,27.35
2022-11-30T22:16:10.036Z,30.55
2022-11-30T22:18:37.623Z,27.08
2022-11-30T22:21:12.031Z,29.25
2022-11-30T22:23:42.680Z,32.88
2022-11-30T22:26:16.990Z,27.23
2022-11-30T22:28:46.253Z,30.45
2022-11-30T22:31:14.765Z,28.27
2022-11-30T22:33:42.883Z,31.95
2022-11-30T22:36:15.838Z,27.15
2022-11-30T22:38:42.966Z,34.90
2022-11-30T22:41:12.918Z,41.55
2022-11-30T22:43:40.450Z,51.05
2022-11-30T22:46:12.533Z,47.88
2022-11-30T22:48:39.856Z,43.03
2022-11-30T22:51:09.582Z,52.22
2022-11-30T22:53:37.817Z,42.72
2022-11-30T22:56:09.466Z,37.35
2022-11-30T22:58:36.560Z,36.00
2022-11-30T23:01:12.567Z,36.17
2022-11-30T23:03:40.134Z,29.05
2022-11-30T23:06:07.899Z,30.02
2022-11-30T23:08:36.127Z,27.63
2022-11-30T23:11:08.740Z,28.35
2022-11-30T23:13:35.953Z,31.10
2022-11-30T23:16:04.966Z,29.30
2022-11-30T23:18:40.994Z,32.17
2022-11-30T23:21:25.703Z,27.30
2022-11-30T23:23:53.166Z,29.63
2022-11-30T23:26:23.197Z,29.05
2022-11-30T23:28:51.956Z,28.45
2022-11-30T23:31:34.502Z,29.75
2022-11-30T23:34:05.536Z,27.15
2022-11-30T23:36:33.471Z,29.00
2022-11-30T23:39:09.646Z,33.03
2022-11-30T23:41:36.795Z,30.48
2022-11-30T23:44:03.784Z,27.55
2022-11-30T23:46:31.811Z,30.13
2022-11-30T23:48:58.880Z,29.10
2022-11-30T23:51:25.906Z,29.17
2022-11-30T23:53:53.054Z,29.52
2022-11-30T23:56:20.996Z,32.25
2022-11-30T23:58:48.309Z,29.85
